Time;durP1;ratioP1;P1;durP2;ratioP2;P2;SDS_P1;SDS_P2;PMS_P1;PMS_P2;Temp;Humidity;BMP_temperature;BMP_pressure;BME280_temperature;BME280_humidity;BME280_pressure;Samples;Min_cycle;Max_cycle;Signal;HPM_P1;HPM_P2
2021/11/20 00:01:36;;;;;;;4.13;3.73;;;;;;;10.25;100.00;101856.94;4971543;28;20178;-72
2021/11/20 00:04:02;;;;;;;4.93;4.40;;;;;;;10.24;100.00;101858.03;4972359;28;20166;-73
2021/11/20 00:06:31;;;;;;;5.80;4.20;;;;;;;10.22;100.00;101854.78;4972203;28;20170;-72
2021/11/20 00:08:58;;;;;;;4.20;3.87;;;;;;;10.24;100.00;101854.50;4972241;28;20184;-72
2021/11/20 00:11:26;;;;;;;3.07;2.77;;;;;;;10.26;100.00;101855.03;4972164;28;20272;-72
2021/11/20 00:13:53;;;;;;;2.70;2.40;;;;;;;10.27;100.00;101856.66;4972521;28;20209;-73
2021/11/20 00:16:22;;;;;;;2.43;2.23;;;;;;;10.27;100.00;101859.41;4972070;28;20257;-73
2021/11/20 00:18:48;;;;;;;2.47;2.37;;;;;;;10.25;100.00;101854.22;4970871;28;20182;-72
2021/11/20 00:21:18;;;;;;;2.57;2.37;;;;;;;10.25;100.00;101854.22;4972120;28;20212;-73
2021/11/20 00:23:50;;;;;;;4.03;3.63;;;;;;;10.25;100.00;101854.22;4971940;28;20566;-73
2021/11/20 00:26:19;;;;;;;1.97;1.80;;;;;;;10.24;100.00;101846.28;4971993;28;20169;-73
2021/11/20 00:31:26;;;;;;;0.73;0.73;;;;;;;10.24;100.00;101846.28;4972366;28;20292;-73
2021/11/20 00:33:52;;;;;;;3.17;2.40;;;;;;;10.24;100.00;101841.66;4971868;28;20178;-72
2021/11/20 00:36:20;;;;;;;5.07;1.40;;;;;;;10.23;100.00;101831.81;4971875;28;20186;-72
2021/11/20 00:38:45;;;;;;;2.20;2.10;;;;;;;10.22;100.00;101826.63;4971916;28;20262;-73
2021/11/20 00:41:21;;;;;;;2.50;2.30;;;;;;;10.22;100.00;101832.09;4972275;28;20198;-72
2021/11/20 00:43:48;;;;;;;2.33;2.13;;;;;;;10.21;100.00;101834.00;4971878;28;20544;-72
2021/11/20 00:46:16;;;;;;;2.00;1.90;;;;;;;10.19;100.00;101836.16;4971801;28;20618;-72
2021/11/20 00:48:43;;;;;;;4.13;3.63;;;;;;;10.20;100.00;101832.34;4971821;28;20201;-73
2021/11/20 00:51:10;;;;;;;2.50;2.30;;;;;;;10.20;100.00;101840.53;4972121;28;20304;-72
2021/11/20 00:53:36;;;;;;;2.77;2.57;;;;;;;10.21;100.00;101830.44;4971855;28;20182;-73
2021/11/20 00:56:03;;;;;;;2.77;2.57;;;;;;;10.20;100.00;101823.34;4971517;28;20633;-72
2021/11/20 00:58:29;;;;;;;2.83;2.63;;;;;;;10.19;100.00;101827.97;4971633;28;20192;-73
2021/11/20 01:00:57;;;;;;;5.30;3.13;;;;;;;10.18;100.00;101825.53;4971788;28;20280;-72
2021/11/20 01:03:24;;;;;;;2.03;1.93;;;;;;;10.17;100.00;101816.50;4971469;28;20180;-73
2021/11/20 01:05:51;;;;;;;1.37;1.27;;;;;;;10.17;100.00;101816.50;4971567;28;20518;-73
2021/11/20 01:08:18;;;;;;;5.00;4.60;;;;;;;10.18;100.00;101818.16;4971666;28;20185;-72
2021/11/20 01:10:48;;;;;;;5.70;4.33;;;;;;;10.18;100.00;101823.63;4971620;28;20310;-73
2021/11/20 01:13:15;;;;;;;2.50;2.03;;;;;;;10.19;100.00;101822.53;4975202;28;20392;-73
2021/11/20 01:15:50;;;;;;;3.73;1.97;;;;;;;10.22;100.00;101821.19;4975199;28;20174;-72
2021/11/20 01:18:17;;;;;;;2.50;2.40;;;;;;;10.21;100.00;101823.09;4975321;28;20219;-72
2021/11/20 01:20:46;;;;;;;2.07;1.97;;;;;;;10.22;100.00;101826.63;4975285;28;20178;-72
2021/11/20 01:23:13;;;;;;;5.70;4.53;;;;;;;10.20;100.00;101815.16;4975456;28;20272;-72
2021/11/20 01:25:39;;;;;;;3.33;3.13;;;;;;;10.18;100.00;101815.41;4974758;28;20185;-72
2021/11/20 01:28:06;;;;;;;3.07;2.80;;;;;;;10.18;100.00;101806.41;4975052;28;20237;-73
2021/11/20 01:30:33;;;;;;;4.37;3.97;;;;;;;10.17;100.00;101802.03;4974935;28;20197;-72
2021/11/20 01:32:58;;;;;;;3.47;2.13;;;;;;;10.16;100.00;101805.88;4972505;28;20580;-72
2021/11/20 01:35:24;;;;;;;2.70;2.30;;;;;;;10.14;100.00;101801.50;4973916;28;20194;-72
2021/11/20 01:37:50;;;;;;;1.30;1.30;;;;;;;10.12;100.00;101794.66;4974962;28;20186;-72
2021/11/20 01:40:19;;;;;;;10.17;3.90;;;;;;;10.11;100.00;101793.84;4975334;28;20182;-73
2021/11/20 01:42:45;;;;;;;3.47;3.13;;;;;;;10.11;100.00;101802.03;4974843;28;20189;-73
2021/11/20 01:45:34;;;;;;;6.33;3.93;;;;;;;10.14;100.00;101800.69;4974898;28;20551;-73
2021/11/20 01:48:36;;;;;;;7.47;3.00;;;;;;;10.14;100.00;101796.03;4975230;28;20182;-72
2021/11/20 01:51:34;;;;;;;8.00;4.70;;;;;;;10.14;100.00;101793.31;4975073;28;20269;-73
2021/11/20 01:54:15;;;;;;;2.97;2.73;;;;;;;10.13;100.00;101790.84;4975133;28;20198;-73
2021/11/20 01:56:55;;;;;;;4.07;2.77;;;;;;;10.14;100.00;101795.22;4974902;28;20188;-72
2021/11/20 01:59:27;;;;;;;3.27;2.83;;;;;;;10.13;100.00;101783.47;4974986;28;20170;-73
2021/11/20 02:02:00;;;;;;;4.47;4.13;;;;;;;10.16;100.00;101797.69;4974893;28;20177;-73
2021/11/20 02:04:28;;;;;;;2.67;2.47;;;;;;;10.17;100.00;101785.66;4974839;28;20240;-73
2021/11/20 02:07:28;;;;;;;6.17;3.13;;;;;;;10.17;100.00;101781.00;4974813;28;20249;-73
2021/11/20 02:10:06;;;;;;;2.73;2.57;;;;;;;10.18;100.00;101787.28;4974461;28;20220;-73
2021/11/20 02:12:36;;;;;;;2.70;2.50;;;;;;;10.17;100.00;101783.75;4974831;28;20176;-73
2021/11/20 02:15:06;;;;;;;3.40;3.10;;;;;;;10.17;100.00;101785.66;4974912;28;20647;-73
2021/11/20 02:17:36;;;;;;;7.47;2.37;;;;;;;10.16;100.00;101775.81;4974610;28;20217;-72
2021/11/20 02:20:12;;;;;;;1.50;1.23;;;;;;;10.14;100.00;101771.47;4974697;28;20178;-72
2021/11/20 02:22:40;;;;;;;3.00;2.20;;;;;;;10.16;100.00;101775.81;4974135;28;20180;-72
2021/11/20 02:25:05;;;;;;;2.43;2.33;;;;;;;10.14;100.00;101771.47;4974232;28;20413;-73
2021/11/20 02:27:37;;;;;;;1.30;1.20;;;;;;;10.16;100.00;101771.19;4974036;28;20178;-73
2021/11/20 02:30:31;;;;;;;1.83;1.73;;;;;;;10.14;100.00;101768.72;4974096;28;20209;-73
2021/11/20 02:33:01;;;;;;;3.10;2.90;;;;;;;10.14;100.00;101760.53;4973857;28;20174;-73
2021/11/20 02:35:34;;;;;;;2.43;2.23;;;;;;;10.14;100.00;101774.19;4973649;28;20284;-72
2021/11/20 02:38:00;;;;;;;5.37;4.47;;;;;;;10.14;100.00;101763.28;4973866;28;20186;-73
2021/11/20 02:40:26;;;;;;;11.00;4.60;;;;;;;10.16;100.00;101768.47;4973674;28;20182;-73
2021/11/20 02:42:52;;;;;;;5.20;4.73;;;;;;;10.14;100.00;101760.53;4973643;28;20269;-73
2021/11/20 02:45:28;;;;;;;4.27;3.37;;;;;;;10.12;100.00;101768.16;4973807;28;20190;-73
2021/11/20 02:47:54;;;;;;;2.97;2.77;;;;;;;10.12;100.00;101770.91;4972865;28;20188;-73
2021/11/20 02:50:51;;;;;;;2.70;2.50;;;;;;;10.10;100.00;101764.91;4973932;28;20209;-73
2021/11/20 02:53:22;;;;;;;3.17;2.87;;;;;;;10.08;100.00;101764.34;4973507;28;20194;-72
2021/11/20 02:55:52;;;;;;;1.63;1.53;;;;;;;10.08;100.00;101755.34;4973597;28;20193;-72
2021/11/20 02:58:21;;;;;;;3.00;2.80;;;;;;;10.08;100.00;101753.44;4973549;28;20182;-73
2021/11/20 03:00:51;;;;;;;2.57;2.37;;;;;;;10.09;100.00;101751.53;4973665;28;20537;-72
2021/11/20 03:03:16;;;;;;;7.57;2.50;;;;;;;10.10;100.00;101751.25;4973407;28;20284;-73
2021/11/20 03:05:41;;;;;;;1.03;1.03;;;;;;;10.11;100.00;101744.69;4973624;28;20241;-72
2021/11/20 03:08:07;;;;;;;3.93;3.30;;;;;;;10.11;100.00;101746.59;4973603;28;20188;-73
2021/11/20 03:10:32;;;;;;;1.07;1.07;;;;;;;10.09;100.00;101743.31;4973716;28;20676;-72
2021/11/20 03:12:58;;;;;;;1.13;1.13;;;;;;;10.09;100.00;101741.41;4973591;28;20185;-73
2021/11/20 03:15:23;;;;;;;7.37;4.03;;;;;;;10.09;100.00;101735.13;4973418;28;20256;-73
2021/11/20 03:17:48;;;;;;;4.60;3.33;;;;;;;10.08;100.00;101731.59;4973874;28;20178;-73
2021/11/20 03:20:16;;;;;;;1.87;1.77;;;;;;;10.07;100.00;101729.97;4973573;28;20213;-73
2021/11/20 03:22:51;;;;;;;3.33;3.07;;;;;;;10.06;100.00;101724.78;4973061;28;20280;-72
2021/11/20 03:25:17;;;;;;;6.57;5.97;;;;;;;10.05;100.00;101723.13;4973201;28;20200;-73
2021/11/20 03:27:42;;;;;;;3.23;2.93;;;;;;;10.03;100.00;101726.16;4973440;28;20208;-72
2021/11/20 03:30:09;;;;;;;5.47;4.43;;;;;;;10.03;100.00;101717.97;4973226;28;20209;-72
2021/11/20 03:32:34;;;;;;;5.97;5.47;;;;;;;10.04;100.00;101714.13;4973310;28;20644;-72
2021/11/20 03:35:00;;;;;;;4.03;3.73;;;;;;;10.02;100.00;101713.59;4972383;28;20174;-72
2021/11/20 03:37:25;;;;;;;5.30;3.83;;;;;;;10.02;100.00;101720.97;4973554;28;20178;-72
2021/11/20 03:39:51;;;;;;;8.33;4.83;;;;;;;10.01;100.00;101725.59;4971573;28;20198;-72
2021/11/20 03:42:18;;;;;;;4.27;3.90;;;;;;;10.04;100.00;101727.78;4959770;28;20210;-72
2021/11/20 03:44:44;;;;;;;9.20;4.83;;;;;;;10.05;100.00;101732.16;4972863;28;20174;-72
2021/11/20 03:47:10;;;;;;;4.70;3.43;;;;;;;10.06;100.00;101722.84;4972785;28;20182;-72
2021/11/20 03:49:35;;;;;;;4.07;3.77;;;;;;;10.03;100.00;101720.69;4972606;28;20202;-72
2021/11/20 03:52:00;;;;;;;4.80;4.40;;;;;;;10.02;100.00;101713.59;4972782;28;20182;-72
2021/11/20 03:54:26;;;;;;;5.07;4.63;;;;;;;10.02;100.00;101708.13;4972733;28;20542;-72
2021/11/20 03:56:52;;;;;;;3.50;3.03;;;;;;;10.02;100.00;101721.78;4972615;28;20251;-72
2021/11/20 03:59:18;;;;;;;5.33;3.17;;;;;;;10.01;100.00;101719.34;4972776;28;20181;-72
2021/11/20 04:01:44;;;;;;;4.00;3.70;;;;;;;10.01;100.00;101725.59;4972653;28;20644;-72
2021/11/20 04:04:10;;;;;;;4.13;3.60;;;;;;;10.02;100.00;101735.44;4972627;28;20228;-72
2021/11/20 04:06:35;;;;;;;4.17;3.77;;;;;;;10.02;100.00;101731.88;4959366;28;20213;-72
2021/11/20 04:09:00;;;;;;;5.73;3.57;;;;;;;10.03;100.00;101736.25;4953281;28;20233;-73
2021/11/20 04:11:30;;;;;;;5.53;5.03;;;;;;;10.04;100.00;101729.69;4953202;28;20206;-72
2021/11/20 04:13:56;;;;;;;3.37;3.17;;;;;;;10.06;100.00;101727.50;4952939;28;20638;-72
2021/11/20 04:16:24;;;;;;;3.60;2.30;;;;;;;10.06;100.00;101728.31;4953094;28;20179;-73
2021/11/20 04:18:49;;;;;;;3.03;2.80;;;;;;;10.06;100.00;101736.50;4953429;28;20543;-72
2021/11/20 04:21:16;;;;;;;3.77;3.47;;;;;;;10.05;100.00;101729.41;4953561;28;20277;-72
2021/11/20 04:23:45;;;;;;;10.80;1.43;;;;;;;10.07;100.00;101726.41;4953223;28;20184;-73
2021/11/20 04:26:12;;;;;;;5.33;4.93;;;;;;;10.06;100.00;101731.06;4953366;28;20550;-72
2021/11/20 04:28:37;;;;;;;4.80;4.40;;;;;;;10.07;100.00;101726.41;4953177;28;20178;-72
2021/11/20 04:31:02;;;;;;;3.83;3.53;;;;;;;10.08;100.00;101728.03;4952973;28;20245;-72
2021/11/20 04:33:28;;;;;;;1.23;1.20;;;;;;;10.06;100.00;101728.31;4953098;28;20631;-73
2021/11/20 04:35:53;;;;;;;1.97;1.53;;;;;;;10.05;100.00;101723.97;4952947;28;20205;-73
2021/11/20 04:38:19;;;;;;;0.83;0.83;;;;;;;10.04;100.00;101716.84;4952837;28;20174;-72
2021/11/20 04:40:45;;;;;;;2.20;1.83;;;;;;;10.03;100.00;101712.50;4952946;28;20175;-73
2021/11/20 04:43:11;;;;;;;1.53;1.20;;;;;;;10.05;100.00;101712.22;4952989;28;20170;-72
2021/11/20 04:45:37;;;;;;;3.93;2.87;;;;;;;10.05;100.00;101710.31;4952900;28;20270;-73
2021/11/20 04:48:05;;;;;;;1.73;1.67;;;;;;;10.07;100.00;101710.03;4956702;28;20265;-72
2021/11/20 04:50:32;;;;;;;2.13;2.00;;;;;;;10.09;100.00;101708.66;4956834;28;20210;-73
2021/11/20 04:52:57;;;;;;;5.60;3.57;;;;;;;10.07;100.00;101694.47;4956774;28;20618;-73
2021/11/20 04:55:24;;;;;;;5.53;5.07;;;;;;;10.06;100.00;101700.19;4956737;28;20178;-72
2021/11/20 04:57:49;;;;;;;3.97;3.17;;;;;;;10.06;100.00;101700.19;4956487;28;20182;-72
2021/11/20 05:00:20;;;;;;;5.10;4.07;;;;;;;10.06;100.00;101702.94;4957197;28;20189;-72
2021/11/20 05:02:46;;;;;;;3.07;2.83;;;;;;;10.05;100.00;101702.13;4956331;28;20167;-72
2021/11/20 05:05:12;;;;;;;2.37;2.23;;;;;;;10.04;100.00;101700.47;4956308;28;20185;-72
2021/11/20 05:07:37;;;;;;;2.50;2.30;;;;;;;10.03;100.00;101703.50;4956516;28;20180;-72
2021/11/20 05:10:04;;;;;;;3.43;3.13;;;;;;;10.02;100.00;101696.41;4956447;28;20290;-72
2021/11/20 05:12:29;;;;;;;4.33;3.93;;;;;;;10.00;100.00;101695.84;4956109;28;20194;-72
2021/11/20 05:14:55;;;;;;;2.43;2.30;;;;;;;9.98;100.00;101690.69;4956432;28;20182;-72
2021/11/20 05:17:20;;;;;;;4.30;3.93;;;;;;;9.99;100.00;101699.69;4972242;28;20213;-73
2021/11/20 05:19:45;;;;;;;1.67;1.57;;;;;;;9.98;100.00;101690.69;4975712;28;20193;-73
2021/11/20 05:22:11;;;;;;;2.37;1.73;;;;;;;9.97;100.00;101685.47;4974284;28;20628;-72
2021/11/20 05:24:36;;;;;;;4.43;4.03;;;;;;;9.96;100.00;101701.03;4975402;28;20611;-72
2021/11/20 05:27:02;;;;;;;5.40;4.17;;;;;;;9.98;100.00;101687.09;4975217;28;20513;-72
2021/11/20 05:29:42;;;;;;;4.80;4.37;;;;;;;10.00;100.00;101682.22;4975038;28;20174;-72
2021/11/20 05:32:08;;;;;;;5.03;4.57;;;;;;;10.01;100.00;101681.94;4975150;28;20162;-72
2021/11/20 05:34:34;;;;;;;6.20;5.07;;;;;;;10.04;100.00;101684.09;4974923;28;20174;-72
2021/11/20 05:37:00;;;;;;;4.57;4.17;;;;;;;10.05;100.00;101690.38;4974924;28;20617;-73
2021/11/20 05:39:25;;;;;;;2.13;1.30;;;;;;;10.03;100.00;101693.38;4977653;28;20212;-72
2021/11/20 05:41:52;;;;;;;5.67;4.90;;;;;;;9.99;100.00;101683.31;4978897;28;20197;-72
2021/11/20 05:44:18;;;;;;;4.83;3.47;;;;;;;10.00;100.00;101684.94;4974318;28;20177;-73
2021/11/20 05:46:43;;;;;;;2.23;2.03;;;;;;;9.99;100.00;101683.31;4975270;28;20177;-72
2021/11/20 05:49:09;;;;;;;2.97;2.77;;;;;;;9.96;100.00;101681.91;4975219;28;20166;-72
2021/11/20 05:51:36;;;;;;;6.47;5.07;;;;;;;9.97;100.00;101683.56;4972314;28;20217;-73
2021/11/20 05:54:03;;;;;;;8.40;7.10;;;;;;;9.96;100.00;101673.72;4974531;28;20213;-73
2021/11/20 05:56:29;;;;;;;5.37;4.93;;;;;;;9.96;100.00;101671.00;4974819;28;20200;-73
2021/11/20 05:58:55;;;;;;;4.63;3.90;;;;;;;9.96;100.00;101670.19;4974017;28;20170;-72
2021/11/20 06:01:20;;;;;;;4.10;3.70;;;;;;;9.95;100.00;101669.38;4974948;28;20614;-72
2021/11/20 06:03:46;;;;;;;8.27;6.50;;;;;;;9.94;100.00;101675.91;4975105;28;20182;-73
2021/11/20 06:06:11;;;;;;;6.97;3.30;;;;;;;9.95;100.00;101676.75;4974851;28;20711;-73
2021/11/20 06:08:36;;;;;;;8.43;7.53;;;;;;;9.94;100.00;101667.72;4974926;28;20241;-72
2021/11/20 06:11:04;;;;;;;4.43;4.03;;;;;;;9.95;100.00;101669.38;4975104;28;20208;-73
2021/11/20 06:13:30;;;;;;;4.63;4.23;;;;;;;9.95;100.00;101668.53;4974749;28;20224;-73
2021/11/20 06:15:56;;;;;;;9.27;7.97;;;;;;;9.96;100.00;101670.19;4974356;28;20582;-73
2021/11/20 06:18:22;;;;;;;3.53;3.27;;;;;;;9.96;100.00;101665.53;4974468;28;20174;-73
2021/11/20 06:20:49;;;;;;;4.27;3.87;;;;;;;9.96;100.00;101667.44;4974555;28;20178;-72
2021/11/20 06:23:16;;;;;;;6.57;5.87;;;;;;;9.94;100.00;101662.28;4974928;28;20258;-73
2021/11/20 06:25:41;;;;;;;9.57;6.33;;;;;;;9.94;100.00;101662.28;4974501;28;20194;-73
2021/11/20 06:28:06;;;;;;;10.70;4.97;;;;;;;9.94;100.00;101667.72;4974774;28;20236;-73
2021/11/20 06:30:33;;;;;;;4.13;3.83;;;;;;;9.95;100.00;101660.34;4974180;28;20208;-73
2021/11/20 06:32:59;;;;;;;13.90;8.20;;;;;;;9.93;100.00;101666.09;4974165;28;20186;-73
2021/11/20 06:35:27;;;;;;;7.20;6.50;;;;;;;9.93;100.00;101663.38;4973860;28;20178;-73
2021/11/20 06:37:55;;;;;;;10.23;9.03;;;;;;;9.93;100.00;101668.00;4972575;28;20173;-73
2021/11/20 06:40:22;;;;;;;6.20;5.60;;;;;;;9.92;100.00;101680.84;4973870;28;20186;-73
2021/11/20 06:42:47;;;;;;;7.03;6.37;;;;;;;9.93;100.00;101685.22;4972533;28;20178;-73
2021/11/20 06:45:20;;;;;;;12.30;8.53;;;;;;;9.93;100.00;101677.03;4974002;28;20642;-72
2021/11/20 06:47:49;;;;;;;6.33;4.17;;;;;;;9.93;100.00;101673.47;4974204;28;20178;-73
2021/11/20 06:50:15;;;;;;;13.80;8.37;;;;;;;9.91;100.00;101676.47;4973640;28;20600;-73
2021/11/20 06:52:41;;;;;;;13.23;10.23;;;;;;;9.91;100.00;101678.41;4973959;28;20213;-72
2021/11/20 06:55:08;;;;;;;3.27;2.97;;;;;;;9.91;100.00;101673.75;4973304;28;20182;-72
2021/11/20 07:00:28;;;;;;;4.67;4.37;;;;;;;9.89;100.00;101684.13;4974299;28;20174;-73
2021/11/20 07:03:05;;;;;;;10.90;9.67;;;;;;;9.90;100.00;101676.75;4973939;28;20633;-73
2021/11/20 07:05:34;;;;;;;8.03;7.17;;;;;;;9.91;100.00;101673.75;4973465;28;20165;-73
2021/11/20 07:08:01;;;;;;;4.93;4.43;;;;;;;9.91;100.00;101672.94;4973602;28;20170;-79
2021/11/20 07:10:28;;;;;;;9.83;9.03;;;;;;;9.91;100.00;101665.56;4973406;28;20198;-73
2021/11/20 07:12:56;;;;;;;6.60;3.93;;;;;;;9.91;100.00;101671.03;4973969;28;20182;-73
2021/11/20 07:15:22;;;;;;;6.27;5.53;;;;;;;9.90;100.00;101666.66;4970063;28;20631;-72
2021/11/20 07:17:48;;;;;;;5.50;5.00;;;;;;;9.91;100.00;101667.47;4970452;28;20615;-72
2021/11/20 07:20:14;;;;;;;14.37;10.57;;;;;;;9.90;100.00;101672.13;4973707;28;20166;-72
2021/11/20 07:22:39;;;;;;;7.63;6.93;;;;;;;9.91;100.00;101673.75;4973470;28;20507;-72
2021/11/20 07:25:05;;;;;;;5.13;4.67;;;;;;;9.93;100.00;101666.09;4973500;28;20181;-72
2021/11/20 07:27:31;;;;;;;6.17;5.67;;;;;;;9.94;100.00;101675.09;4973243;28;20196;-72
2021/11/20 07:29:56;;;;;;;5.23;4.73;;;;;;;9.94;100.00;101670.47;4973179;28;20649;-72
2021/11/20 07:32:26;;;;;;;7.17;6.37;;;;;;;9.95;100.00;101677.56;4972959;28;20174;-73
2021/11/20 07:34:51;;;;;;;14.00;7.30;;;;;;;9.93;100.00;101671.56;4973402;28;20178;-73
2021/11/20 07:37:17;;;;;;;4.60;4.20;;;;;;;9.93;100.00;101665.28;4973288;28;20634;-72
2021/11/20 07:39:42;;;;;;;6.90;6.37;;;;;;;9.92;100.00;101667.19;4971826;28;20653;-73
2021/11/20 07:42:07;;;;;;;6.80;6.17;;;;;;;9.92;100.00;101667.19;4973165;28;20177;-72
2021/11/20 07:44:33;;;;;;;8.63;7.83;;;;;;;9.94;100.00;101656.81;4973411;28;20265;-73
2021/11/20 07:46:59;;;;;;;8.07;7.27;;;;;;;9.94;100.00;101656.00;4972994;28;20240;-73
2021/11/20 07:49:24;;;;;;;4.57;4.03;;;;;;;9.94;100.00;101651.34;4972724;28;20194;-72
2021/11/20 07:51:49;;;;;;;5.93;5.40;;;;;;;9.94;100.00;101651.34;4972761;28;20647;-72
2021/11/20 07:54:15;;;;;;;6.47;5.27;;;;;;;9.94;100.00;101648.63;4972553;28;20265;-72
2021/11/20 07:56:43;;;;;;;3.40;3.10;;;;;;;9.95;100.00;101643.97;4972263;28;20185;-73
2021/11/20 07:59:13;;;;;;;7.03;6.33;;;;;;;9.95;100.00;101649.44;4972409;28;20178;-73
2021/11/20 08:01:40;;;;;;;7.77;5.37;;;;;;;9.94;100.00;101634.97;4972123;28;20253;-73
2021/11/20 08:04:06;;;;;;;13.93;11.30;;;;;;;9.96;100.00;101629.22;4972371;28;20657;-73
2021/11/20 08:06:34;;;;;;;8.13;6.43;;;;;;;9.97;100.00;101623.50;4972496;28;20248;-73
2021/11/20 08:09:04;;;;;;;5.30;4.90;;;;;;;9.97;100.00;101633.59;4972303;28;20178;-72
2021/11/20 08:11:34;;;;;;;4.60;4.20;;;;;;;9.97;100.00;101628.94;4972094;28;20205;-72
2021/11/20 08:14:00;;;;;;;4.63;4.30;;;;;;;9.97;100.00;101628.94;4972132;28;20178;-73
2021/11/20 08:16:28;;;;;;;2.97;2.77;;;;;;;9.97;100.00;101634.41;4971982;28;20166;-73
2021/11/20 08:18:53;;;;;;;5.93;5.37;;;;;;;9.98;100.00;101625.16;4972203;28;20170;-73
2021/11/20 08:21:18;;;;;;;3.30;3.10;;;;;;;9.99;100.00;101612.31;4971681;28;20657;-73
2021/11/20 08:23:44;;;;;;;5.53;5.00;;;;;;;9.98;100.00;101621.56;4972354;28;20185;-73
2021/11/20 08:26:09;;;;;;;7.87;6.33;;;;;;;9.99;100.00;101615.06;4972007;28;20294;-73
2021/11/20 08:28:36;;;;;;;7.60;5.73;;;;;;;10.00;100.00;101617.50;4972057;28;20173;-73
2021/11/20 08:31:02;;;;;;;8.07;7.30;;;;;;;10.01;100.00;101613.66;4970737;28;20201;-73
2021/11/20 08:33:28;;;;;;;8.23;7.40;;;;;;;10.02;100.00;101620.75;4970113;28;20175;-73
2021/11/20 08:35:55;;;;;;;6.70;5.63;;;;;;;10.04;100.00;101615.84;4969480;28;20196;-73
2021/11/20 08:38:20;;;;;;;7.63;6.93;;;;;;;10.05;100.00;101614.75;4972270;28;20169;-73
2021/11/20 08:40:47;;;;;;;6.13;5.53;;;;;;;10.06;100.00;101604.63;4971979;28;20671;-73
2021/11/20 08:43:13;;;;;;;7.33;6.67;;;;;;;10.07;100.00;101611.72;4971995;28;20576;-73
2021/11/20 08:45:43;;;;;;;7.93;7.27;;;;;;;10.08;100.00;101613.34;4971828;28;20166;-73
2021/11/20 08:48:11;;;;;;;10.93;9.83;;;;;;;10.12;100.00;101612.50;4971849;28;20233;-73
2021/11/20 08:50:39;;;;;;;9.40;7.87;;;;;;;10.14;100.00;101613.06;4971867;28;20284;-73
2021/11/20 08:53:05;;;;;;;12.87;11.60;;;;;;;10.17;100.00;101613.59;4971722;28;20181;-73
2021/11/20 08:55:31;;;;;;;5.77;5.20;;;;;;;10.17;100.00;101619.88;4971541;28;20170;-73
2021/11/20 08:57:57;;;;;;;14.03;10.77;;;;;;;10.18;100.00;101613.31;4971797;28;20193;-73
2021/11/20 09:00:30;;;;;;;7.87;7.07;;;;;;;10.20;100.00;101613.03;4971787;28;20645;-74
2021/11/20 09:03:09;;;;;;;8.90;8.07;;;;;;;10.22;100.00;101606.22;4971703;28;20229;-73
2021/11/20 09:05:53;;;;;;;6.80;6.17;;;;;;;10.26;100.00;101606.47;4971928;28;20162;-73
2021/11/20 09:08:32;;;;;;;3.37;3.07;;;;;;;10.27;100.00;101600.75;4971727;28;20256;-73
2021/11/20 09:11:15;;;;;;;6.27;5.77;;;;;;;10.30;100.00;101596.66;4968973;28;20670;-73
2021/11/20 09:13:58;;;;;;;3.70;3.40;;;;;;;10.29;100.00;101590.38;4960068;28;20630;-72
2021/11/20 09:16:25;;;;;;;8.77;7.97;;;;;;;10.28;100.00;101590.66;4971360;28;20556;-73
2021/11/20 09:18:51;;;;;;;2.53;2.33;;;;;;;10.30;100.00;101591.19;4971915;28;20224;-73
2021/11/20 09:21:17;;;;;;;4.53;4.13;;;;;;;10.30;100.00;101583.81;4970355;28;20182;-73
2021/11/20 09:23:45;;;;;;;7.63;6.93;;;;;;;10.31;100.00;101582.69;4971474;28;20680;-73
2021/11/20 09:26:11;;;;;;;5.73;5.30;;;;;;;10.31;100.00;101585.44;4971463;28;20170;-73
2021/11/20 09:28:37;;;;;;;5.07;4.63;;;;;;;10.32;100.00;101580.78;4971538;28;20681;-75
2021/11/20 09:31:05;;;;;;;2.30;2.17;;;;;;;10.33;100.00;101576.97;4966830;28;20313;-77
2021/11/20 09:33:31;;;;;;;3.87;3.67;;;;;;;10.32;100.00;101575.31;4961367;28;20177;-76
2021/11/20 09:35:56;;;;;;;5.17;4.53;;;;;;;10.30;100.00;101561.94;4955535;28;20564;-76
2021/11/20 09:38:24;;;;;;;5.03;4.40;;;;;;;10.32;100.00;101567.94;4955440;28;20175;-75
2021/11/20 09:41:00;;;;;;;4.27;3.87;;;;;;;10.33;100.00;101566.03;4955765;28;20175;-75
2021/11/20 09:43:30;;;;;;;3.20;3.03;;;;;;;10.36;100.00;101569.00;4955959;28;20170;-74
2021/11/20 09:46:04;;;;;;;4.93;4.53;;;;;;;10.37;100.00;101572.56;4955463;28;20179;-73
2021/11/20 09:48:41;;;;;;;3.87;3.57;;;;;;;10.38;100.00;101576.91;4955529;28;20174;-73
2021/11/20 09:51:07;;;;;;;12.80;5.87;;;;;;;10.39;100.00;101573.91;4955229;28;20673;-72
2021/11/20 09:53:32;;;;;;;4.30;3.90;;;;;;;10.43;100.00;101572.25;4955401;28;20258;-72
2021/11/20 09:56:04;;;;;;;4.07;3.70;;;;;;;10.43;100.00;101571.44;4955090;28;20701;-73
2021/11/20 09:58:48;;;;;;;4.53;4.23;;;;;;;10.46;100.00;101570.06;4955326;28;20253;-73
2021/11/20 10:01:41;;;;;;;11.07;8.53;;;;;;;10.48;100.00;101581.50;4955068;28;20158;-73
2021/11/20 10:04:21;;;;;;;5.30;4.90;;;;;;;10.50;100.00;101560.19;4955232;28;20162;-73
2021/11/20 10:06:52;;;;;;;5.63;5.13;;;;;;;10.50;100.00;101552.81;4955158;28;20678;-72
2021/11/20 10:09:20;;;;;;;4.90;4.50;;;;;;;10.51;100.00;101546.22;4955165;28;20502;-72
2021/11/20 10:12:00;;;;;;;7.57;4.30;;;;;;;10.56;100.00;101548.09;4955002;28;20213;-72
2021/11/20 10:14:40;;;;;;;7.53;6.93;;;;;;;10.55;100.00;101546.47;4955033;28;20175;-73
2021/11/20 10:17:17;;;;;;;5.03;4.60;;;;;;;10.52;100.00;101533.38;4957718;28;20645;-74
2021/11/20 10:19:46;;;;;;;5.40;4.93;;;;;;;10.49;100.00;101539.44;4968122;28;20273;-72
2021/11/20 10:22:18;;;;;;;17.33;6.00;;;;;;;10.51;100.00;101531.75;4973910;28;20198;-73
2021/11/20 10:25:09;;;;;;;11.17;10.07;;;;;;;10.52;100.00;101536.94;4974049;28;20182;-73
2021/11/20 10:27:52;;;;;;;6.87;6.33;;;;;;;10.57;100.00;101534.19;4974154;28;20193;-73
2021/11/20 10:30:24;;;;;;;7.23;3.90;;;;;;;10.55;100.00;101530.09;4973983;28;20209;-72
2021/11/20 10:32:55;;;;;;;2.90;2.70;;;;;;;10.55;100.00;101530.91;4973871;28;20553;-73
2021/11/20 10:35:36;;;;;;;5.47;4.97;;;;;;;10.50;100.00;101527.41;4973858;28;20569;-73
2021/11/20 10:38:19;;;;;;;6.30;5.70;;;;;;;10.49;100.00;101515.66;4973883;28;20221;-73
2021/11/20 10:41:12;;;;;;;3.73;3.43;;;;;;;10.46;100.00;101507.22;4973861;28;20174;-73
2021/11/20 10:43:42;;;;;;;3.67;3.30;;;;;;;10.47;100.00;101514.31;4973417;28;20209;-73
2021/11/20 10:46:17;;;;;;;5.37;4.07;;;;;;;10.48;100.00;101503.09;4973654;28;20185;-73
2021/11/20 10:49:08;;;;;;;2.10;2.00;;;;;;;10.48;100.00;101503.09;4969429;28;20672;-73
2021/11/20 10:51:51;;;;;;;2.90;2.70;;;;;;;10.45;100.00;101495.47;4967598;28;20688;-73
2021/11/20 10:54:53;;;;;;;5.03;4.53;;;;;;;10.45;100.00;101500.94;4972784;28;20201;-73
2021/11/20 10:57:37;;;;;;;3.67;3.47;;;;;;;10.47;100.00;101487.00;4972909;28;20203;-73
2021/11/20 11:00:17;;;;;;;4.70;4.30;;;;;;;10.46;100.00;101483.44;4973050;28;20182;-73
2021/11/20 11:03:14;;;;;;;3.20;3.00;;;;;;;10.46;100.00;101479.91;4972712;28;20245;-73
2021/11/20 11:05:59;;;;;;;4.23;3.87;;;;;;;10.42;99.40;101468.72;4972662;28;20181;-73
2021/11/20 11:08:33;;;;;;;2.37;2.17;;;;;;;10.44;99.83;101466.53;4973134;28;20201;-73
2021/11/20 11:11:09;;;;;;;1.90;1.80;;;;;;;10.42;99.27;101455.06;4972635;28;20197;-72
2021/11/20 11:13:59;;;;;;;2.37;2.27;;;;;;;10.46;98.76;101463.50;4972663;28;20268;-72
2021/11/20 11:16:24;;;;;;;3.83;3.50;;;;;;;10.43;99.06;101446.59;4972426;28;20182;-73
2021/11/20 11:18:57;;;;;;;2.63;2.43;;;;;;;10.38;98.42;101448.53;4972658;28;20174;-72
2021/11/20 11:21:39;;;;;;;3.07;2.87;;;;;;;10.38;99.04;101443.06;4972638;28;20193;-72
2021/11/20 11:24:33;;;;;;;2.33;2.17;;;;;;;10.37;100.00;101446.91;4972474;28;20272;-73
2021/11/20 11:27:12;;;;;;;3.93;2.63;;;;;;;10.33;100.00;101443.94;4972321;28;20601;-72
2021/11/20 11:29:58;;;;;;;4.97;4.27;;;;;;;10.35;98.88;101440.91;4972370;28;20268;-73
2021/11/20 11:32:24;;;;;;;2.30;2.10;;;;;;;10.38;98.29;101443.06;4972253;28;20181;-73
2021/11/20 11:34:54;;;;;;;8.83;5.37;;;;;;;10.39;98.17;101436.50;4972077;28;20182;-73
2021/11/20 11:37:40;;;;;;;2.13;2.00;;;;;;;10.38;96.72;101432.13;4972435;28;20182;-73